Skip Navigation Links Skip Navigation Links

Current Weather

Alert, Nunavut

For information only: do not use for flight planning or navigation.
Latest weather
Observation time Sunday, December 17, 2017 5:00 PM EST
Local time Sunday, December 17, 2017 6:09 PM EST
Flight conditions Visual Meteorological Conditions
Winds
Wind direction South (180°)
Wind speed 3 mph
Visibility 12 mi.
Sky condition
Ceiling 3,500 ft. broken clouds
Cloud layer few clouds 2,000 ft.
Cloud layer broken clouds 3,500 ft.
Temperature -29°F
Dewpoint -36°F
Altimeter 29.52 in.Hg
Derived measurements
Relative humidity 67%
Wind chill -41°F
Density altitude -6007 ft.
Sea-level pressure 29.54 in.Hg
METAR CYLT 172200Z 18003KT 12SM FEW020 BKN035 M34/M38 A2952 RMK SC2SC4 SLP003

Settings

Location code

InnerDrive.Weather 4.0.6144.1 Release CLR 4.0.30319.36366
Copyright ©2015 Inner Drive Technology. All rights reserved. Portions Copyright ©1986-2015 David Braverman.

Find weather

Site navigation


Skip Navigation Links

Place info

Page info

PayPal - The safer, easier way to pay online!

Return home.

Copyright ©2017 Inner Drive Technology. Purveyors of fine, hand-crafted computer software. Page printed 2017-12-17T23:09:18 UTC.